createdAt,value
2022-10-22T00:03:25.661Z,17.35
2022-10-22T00:08:28.048Z,17.37
2022-10-22T00:13:29.625Z,17.29
2022-10-22T00:18:31.037Z,17.18
2022-10-22T00:23:32.468Z,17.17
2022-10-22T00:28:33.861Z,17.17
2022-10-22T00:33:35.236Z,17.15
2022-10-22T00:38:36.687Z,17.17
2022-10-22T00:44:04.425Z,17.09
2022-10-22T00:49:05.883Z,16.95
2022-10-22T00:54:08.734Z,16.96
2022-10-22T00:59:13.498Z,16.95
2022-10-22T01:04:14.964Z,16.94
2022-10-22T01:09:19.014Z,16.85
2022-10-22T01:14:41.263Z,16.91
2022-10-22T01:20:15.952Z,16.87
2022-10-22T01:25:31.046Z,16.95
2022-10-22T01:30:34.006Z,17.01
2022-10-22T01:35:42.539Z,17.06
2022-10-22T01:40:45.404Z,17.10
2022-10-22T01:45:50.032Z,17.11
2022-10-22T01:51:13.310Z,17.13
2022-10-22T01:56:36.173Z,16.99
2022-10-22T02:01:50.193Z,16.85
2022-10-22T02:06:55.386Z,16.91
2022-10-22T02:11:59.577Z,16.82
2022-10-22T02:17:01.540Z,16.74
2022-10-22T02:22:03.841Z,16.76
2022-10-22T02:27:16.718Z,16.85
2022-10-22T02:32:21.706Z,16.85
2022-10-22T02:37:25.764Z,16.76
2022-10-22T02:42:28.623Z,16.80
2022-10-22T02:47:30.010Z,16.88
2022-10-22T02:52:31.378Z,16.87
2022-10-22T02:57:32.987Z,16.76
2022-10-22T03:02:34.610Z,16.89
2022-10-22T03:07:35.992Z,16.90
2022-10-22T03:12:37.395Z,16.87
2022-10-22T03:17:39.167Z,16.97
2022-10-22T03:22:42.749Z,16.92
2022-10-22T03:27:45.236Z,16.95
2022-10-22T03:32:46.622Z,17.04
2022-10-22T03:37:48.204Z,17.10
2022-10-22T03:42:49.672Z,17.10
2022-10-22T03:47:51.031Z,16.93
2022-10-22T03:52:53.296Z,16.80
2022-10-22T03:57:54.646Z,16.84
2022-10-22T04:02:56.072Z,16.86
2022-10-22T04:07:57.419Z,16.88
2022-10-22T04:12:58.768Z,16.77
2022-10-22T04:18:00.128Z,16.60
2022-10-22T04:23:01.465Z,16.54
2022-10-22T04:28:02.966Z,16.45
2022-10-22T04:33:04.318Z,16.44
2022-10-22T04:38:05.723Z,16.43
2022-10-22T04:43:07.120Z,16.42
2022-10-22T04:48:08.588Z,16.41
2022-10-22T04:53:09.926Z,16.40
2022-10-22T04:58:11.258Z,16.34
2022-10-22T05:03:12.679Z,16.29
2022-10-22T05:08:14.018Z,16.22
2022-10-22T05:13:15.368Z,16.20
2022-10-22T05:18:19.004Z,16.20
2022-10-22T05:23:23.286Z,16.20
2022-10-22T05:28:24.721Z,16.15
2022-10-22T05:33:27.322Z,16.16
2022-10-22T05:38:28.954Z,16.13
2022-10-22T05:43:30.858Z,16.19
2022-10-22T05:53:41.488Z,16.31
2022-10-22T05:58:44.395Z,16.31
2022-10-22T06:03:46.981Z,16.33
2022-10-22T06:08:50.616Z,16.47
2022-10-22T06:13:52.335Z,16.48
2022-10-22T06:18:53.696Z,16.46
2022-10-22T06:23:59.395Z,16.39
2022-10-22T06:29:00.807Z,16.33
2022-10-22T06:34:13.228Z,16.24
2022-10-22T06:39:16.925Z,16.24
2022-10-22T06:44:20.141Z,16.19
2022-10-22T06:49:21.752Z,16.18
2022-10-22T06:54:23.524Z,16.14
2022-10-22T06:59:24.959Z,16.15
2022-10-22T07:04:26.359Z,16.15
2022-10-22T07:09:27.758Z,16.15
2022-10-22T07:14:29.131Z,16.23
2022-10-22T07:19:31.417Z,16.28
2022-10-22T07:24:32.781Z,16.32
2022-10-22T07:29:34.735Z,16.45
2022-10-22T07:34:37.597Z,16.53
2022-10-22T07:39:40.862Z,16.45
2022-10-22T07:44:42.246Z,16.48
2022-10-22T07:49:43.612Z,16.46
2022-10-22T07:54:44.975Z,16.47
2022-10-22T07:59:46.340Z,16.52
2022-10-22T08:04:47.677Z,16.54
2022-10-22T08:09:49.307Z,16.64
2022-10-22T08:14:50.829Z,16.73
2022-10-22T08:19:52.189Z,16.80
2022-10-22T08:24:53.572Z,16.85
2022-10-22T08:29:55.000Z,16.99
2022-10-22T08:34:56.559Z,16.98
2022-10-22T08:39:57.926Z,17.02
2022-10-22T08:45:25.329Z,17.11
2022-10-22T08:50:51.589Z,16.96
2022-10-22T08:55:54.372Z,16.93
2022-10-22T09:00:59.975Z,17.04
2022-10-22T09:06:23.978Z,16.98
2022-10-22T09:11:35.582Z,17.06
2022-10-22T09:16:55.556Z,17.25
2022-10-22T09:22:16.731Z,17.40
2022-10-22T09:27:21.446Z,17.52
2022-10-22T09:32:23.142Z,17.68
2022-10-22T09:37:29.866Z,17.95
2022-10-22T09:42:33.239Z,18.24
2022-10-22T09:48:01.043Z,18.49
2022-10-22T09:53:21.785Z,18.63
2022-10-22T09:58:23.310Z,18.58
2022-10-22T10:03:28.263Z,18.65
2022-10-22T10:08:29.996Z,18.94
2022-10-22T10:13:46.347Z,19.14
2022-10-22T10:19:11.982Z,19.21
2022-10-22T10:24:47.228Z,19.31
2022-10-22T10:29:56.688Z,19.40
2022-10-22T10:35:06.785Z,19.59
2022-10-22T10:40:43.755Z,19.73
2022-10-22T10:46:03.746Z,19.70
2022-10-22T10:51:35.470Z,19.96
2022-10-22T10:56:56.563Z,20.11
2022-10-22T11:02:35.331Z,20.12
2022-10-22T11:07:41.667Z,20.24
2022-10-22T11:12:48.786Z,20.37
2022-10-22T11:17:52.966Z,20.51
2022-10-22T11:23:19.376Z,20.50
2022-10-22T11:28:44.606Z,20.36
2022-10-22T11:34:04.689Z,20.50
2022-10-22T11:39:51.101Z,20.68
2022-10-22T11:45:06.386Z,20.89
2022-10-22T11:50:26.138Z,21.00
2022-10-22T11:55:45.955Z,20.82
2022-10-22T12:00:48.527Z,20.98
2022-10-22T12:06:05.348Z,21.18
2022-10-22T12:11:36.316Z,21.21
2022-10-22T12:22:06.758Z,21.61
2022-10-22T12:27:23.245Z,21.47
2022-10-22T12:32:34.801Z,21.83
2022-10-22T12:37:37.181Z,21.94
2022-10-22T12:42:38.573Z,21.79
2022-10-22T12:47:40.364Z,21.92
2022-10-22T12:52:42.346Z,21.94
2022-10-22T12:57:47.206Z,21.73
2022-10-22T13:02:49.076Z,21.94
2022-10-22T13:08:01.482Z,22.12
2022-10-22T13:13:04.064Z,22.16
2022-10-22T13:18:18.831Z,22.29
2022-10-22T13:23:22.799Z,22.09
2022-10-22T13:28:24.994Z,21.72
2022-10-22T13:33:42.378Z,21.75
2022-10-22T13:38:44.669Z,22.18
2022-10-22T13:43:46.174Z,22.48
2022-10-22T13:48:49.739Z,22.51
2022-10-22T13:53:52.926Z,22.57
2022-10-22T13:58:54.946Z,22.52
2022-10-22T14:04:03.943Z,22.33
2022-10-22T14:09:08.844Z,22.40
2022-10-22T14:14:14.290Z,22.37
2022-10-22T14:19:17.790Z,22.29
2022-10-22T14:24:19.242Z,22.22
2022-10-22T14:29:20.639Z,22.20
2022-10-22T14:34:21.971Z,22.19
2022-10-22T14:39:23.377Z,22.51
2022-10-22T14:44:25.420Z,22.53
2022-10-22T14:49:26.834Z,22.78
2022-10-22T14:54:28.199Z,22.97
2022-10-22T14:59:29.659Z,22.88
2022-10-22T15:04:31.065Z,22.54
2022-10-22T15:09:32.472Z,22.43
2022-10-22T15:14:33.884Z,22.61
2022-10-22T15:19:35.330Z,22.56
2022-10-22T15:24:37.110Z,22.59
2022-10-22T15:29:38.485Z,22.55
2022-10-22T15:34:40.583Z,22.27
2022-10-22T15:39:42.626Z,22.06
2022-10-22T15:44:44.476Z,21.73
2022-10-22T15:49:45.855Z,21.63
2022-10-22T15:54:47.534Z,21.64
2022-10-22T15:59:50.058Z,21.49
2022-10-22T16:04:51.412Z,21.36
2022-10-22T16:09:57.263Z,21.20
2022-10-22T16:14:58.632Z,21.07
2022-10-22T16:19:59.996Z,20.97
2022-10-22T16:25:01.424Z,20.82
2022-10-22T16:30:02.998Z,20.63
2022-10-22T16:35:04.710Z,20.42
2022-10-22T16:40:08.494Z,20.25
2022-10-22T16:45:10.704Z,20.03
2022-10-22T16:50:12.599Z,19.83
2022-10-22T16:55:14.006Z,19.66
2022-10-22T17:00:15.744Z,19.50
2022-10-22T17:05:17.102Z,19.32
2022-10-22T17:15:28.290Z,18.95
2022-10-22T17:20:29.823Z,18.71
2022-10-22T17:25:44.500Z,18.51
2022-10-22T17:30:45.878Z,18.39
2022-10-22T17:35:49.250Z,18.24
2022-10-22T17:40:50.662Z,18.13
2022-10-22T17:45:52.055Z,18.02
2022-10-22T17:50:55.757Z,17.90
2022-10-22T17:56:06.922Z,17.78
2022-10-22T18:01:36.328Z,17.65
2022-10-22T18:06:38.159Z,17.40
2022-10-22T18:11:40.283Z,17.35
2022-10-22T18:16:42.008Z,17.31
2022-10-22T18:21:43.401Z,17.21
2022-10-22T18:26:45.031Z,17.15
2022-10-22T18:31:47.471Z,17.10
2022-10-22T18:36:48.948Z,17.02
2022-10-22T18:41:50.737Z,16.94
2022-10-22T18:46:52.346Z,16.87
2022-10-22T18:51:53.695Z,16.81
2022-10-22T18:56:59.351Z,16.72
2022-10-22T19:02:03.368Z,16.64
2022-10-22T19:07:05.482Z,16.58
2022-10-22T19:12:09.030Z,16.48
2022-10-22T19:17:10.446Z,16.34
2022-10-22T19:22:12.010Z,16.16
2022-10-22T19:27:13.424Z,16.09
2022-10-22T19:32:16.514Z,16.06
2022-10-22T19:37:17.876Z,16.01
2022-10-22T19:42:20.710Z,16.01
2022-10-22T19:47:22.081Z,15.99
2022-10-22T19:52:23.534Z,15.95
2022-10-22T19:57:24.920Z,15.90
2022-10-22T20:02:26.772Z,15.88
2022-10-22T20:07:29.143Z,15.83
2022-10-22T20:12:30.770Z,15.78
2022-10-22T20:17:32.256Z,15.71
2022-10-22T20:22:33.696Z,15.67
2022-10-22T20:27:35.263Z,15.66
2022-10-22T20:32:38.007Z,15.55
2022-10-22T20:37:39.407Z,15.33
2022-10-22T20:42:41.130Z,15.36
2022-10-22T20:47:51.821Z,15.33
2022-10-22T20:53:00.099Z,15.37
2022-10-22T20:58:01.524Z,15.42
2022-10-22T21:03:02.957Z,15.44
2022-10-22T21:08:05.175Z,15.46
2022-10-22T21:13:06.579Z,15.45
2022-10-22T21:18:08.666Z,15.45
2022-10-22T21:23:10.090Z,15.42
2022-10-22T21:28:11.442Z,15.33
2022-10-22T21:33:13.031Z,15.35
2022-10-22T21:38:14.376Z,15.33
2022-10-22T21:43:17.354Z,15.33
2022-10-22T21:48:18.744Z,15.29
2022-10-22T21:53:20.104Z,15.27
2022-10-22T21:58:21.483Z,15.21
2022-10-22T22:03:23.807Z,15.08
2022-10-22T22:08:25.992Z,15.08
2022-10-22T22:13:27.376Z,15.13
2022-10-22T22:18:29.773Z,15.09
2022-10-22T22:23:31.599Z,15.02
2022-10-22T22:28:34.784Z,14.99
2022-10-22T22:33:36.181Z,14.89
2022-10-22T22:38:38.513Z,14.87
2022-10-22T22:43:39.866Z,14.83
2022-10-22T22:48:41.234Z,14.67
2022-10-22T22:53:42.603Z,14.66
2022-10-22T22:58:44.432Z,14.65
2022-10-22T23:03:56.886Z,14.63
2022-10-22T23:08:58.689Z,14.53
2022-10-22T23:14:02.056Z,14.42
2022-10-22T23:19:05.246Z,14.35
2022-10-22T23:24:10.972Z,14.39
2022-10-22T23:29:21.458Z,14.32
2022-10-22T23:34:24.971Z,14.27
2022-10-22T23:39:28.321Z,14.27
2022-10-22T23:44:29.886Z,14.30
2022-10-22T23:49:31.512Z,14.26
2022-10-22T23:54:32.869Z,14.22
2022-10-22T23:59:34.371Z,14.11
